createdAt,value
2022-08-26T00:00:30.178Z,18.00
2022-08-26T00:02:57.425Z,17.96
2022-08-26T00:05:25.092Z,17.99
2022-08-26T00:07:51.873Z,17.90
2022-08-26T00:10:18.748Z,17.95
2022-08-26T00:12:46.222Z,17.91
2022-08-26T00:15:14.342Z,17.93
2022-08-26T00:17:41.092Z,17.96
2022-08-26T00:20:10.955Z,17.99
2022-08-26T00:22:38.166Z,18.00
2022-08-26T00:25:05.248Z,18.06
2022-08-26T00:27:35.538Z,18.06
2022-08-26T00:30:03.301Z,18.05
2022-08-26T00:32:29.583Z,18.07
2022-08-26T00:34:55.949Z,18.03
2022-08-26T00:37:23.877Z,18.05
2022-08-26T00:39:51.386Z,18.04
2022-08-26T00:42:19.743Z,18.01
2022-08-26T00:44:46.448Z,17.99
2022-08-26T00:47:22.665Z,17.97
2022-08-26T00:49:49.848Z,18.02
2022-08-26T00:52:17.929Z,18.02
2022-08-26T00:54:49.926Z,18.01
2022-08-26T00:57:19.000Z,18.06
2022-08-26T00:59:48.296Z,18.05
2022-08-26T01:02:21.246Z,18.00
2022-08-26T01:04:49.383Z,18.02
2022-08-26T01:07:22.052Z,18.00
2022-08-26T01:09:48.632Z,17.97
2022-08-26T01:12:15.649Z,17.94
2022-08-26T01:14:48.924Z,17.97
2022-08-26T01:17:17.409Z,17.94
2022-08-26T01:19:49.051Z,17.87
2022-08-26T01:22:41.696Z,17.74
2022-08-26T01:25:10.426Z,17.67
2022-08-26T01:27:36.931Z,17.68
2022-08-26T01:30:04.198Z,17.68
2022-08-26T01:32:31.801Z,17.57
2022-08-26T01:34:58.959Z,17.53
2022-08-26T01:37:27.100Z,17.54
2022-08-26T01:39:55.289Z,17.55
2022-08-26T01:42:25.671Z,17.59
2022-08-26T01:44:54.039Z,17.64
2022-08-26T01:47:22.573Z,17.67
2022-08-26T01:49:51.209Z,17.68
2022-08-26T01:52:28.123Z,17.70
2022-08-26T01:54:55.583Z,17.71
2022-08-26T01:57:23.062Z,17.66
2022-08-26T01:59:53.438Z,17.63
2022-08-26T02:02:21.691Z,17.53
2022-08-26T02:04:52.499Z,17.49
2022-08-26T02:07:20.613Z,17.51
2022-08-26T02:09:48.064Z,17.46
2022-08-26T02:12:16.631Z,17.34
2022-08-26T02:14:46.113Z,17.26
2022-08-26T02:17:13.145Z,17.11
2022-08-26T02:19:41.948Z,17.07
2022-08-26T02:22:13.122Z,17.01
2022-08-26T02:24:54.307Z,16.98
2022-08-26T02:27:22.070Z,17.00
2022-08-26T02:29:52.150Z,17.02
2022-08-26T02:32:18.725Z,17.07
2022-08-26T02:34:45.684Z,17.10
2022-08-26T02:37:12.908Z,17.09
2022-08-26T02:39:40.866Z,17.12
2022-08-26T02:42:07.534Z,17.15
2022-08-26T02:44:34.221Z,17.18
2022-08-26T02:47:02.998Z,17.14
2022-08-26T02:49:29.373Z,17.11
2022-08-26T02:51:55.940Z,17.11
2022-08-26T02:54:22.629Z,17.07
2022-08-26T02:56:49.441Z,16.99
2022-08-26T02:59:15.883Z,16.88
2022-08-26T03:01:42.573Z,16.80
2022-08-26T03:04:13.419Z,16.74
2022-08-26T03:06:41.902Z,16.65
2022-08-26T03:09:08.743Z,16.63
2022-08-26T03:11:35.231Z,16.60
2022-08-26T03:14:03.545Z,16.57
2022-08-26T03:16:36.906Z,16.53
2022-08-26T03:19:04.630Z,16.50
2022-08-26T03:21:32.393Z,16.51
2022-08-26T03:23:58.917Z,16.54
2022-08-26T03:26:27.625Z,16.54
2022-08-26T03:28:54.080Z,16.56
2022-08-26T03:31:20.636Z,16.58
2022-08-26T03:33:51.049Z,16.65
2022-08-26T03:36:18.702Z,16.67
2022-08-26T03:38:45.096Z,16.66
2022-08-26T03:41:12.243Z,16.69
2022-08-26T03:43:39.398Z,16.53
2022-08-26T03:46:08.210Z,16.50
2022-08-26T03:48:34.651Z,16.41
2022-08-26T03:51:02.271Z,16.37
2022-08-26T03:53:29.581Z,16.35
2022-08-26T03:55:56.467Z,16.39
2022-08-26T03:58:23.839Z,16.36
2022-08-26T04:00:51.382Z,16.36
2022-08-26T04:03:22.186Z,16.34
2022-08-26T04:05:51.513Z,16.26
2022-08-26T04:08:17.920Z,16.23
2022-08-26T04:10:44.759Z,16.17
2022-08-26T04:13:11.262Z,16.10
2022-08-26T04:15:39.771Z,16.08
2022-08-26T04:18:06.136Z,16.08
2022-08-26T04:20:34.946Z,16.11
2022-08-26T04:23:01.485Z,16.12
2022-08-26T04:25:27.836Z,16.13
2022-08-26T04:27:54.823Z,16.16
2022-08-26T04:30:23.024Z,16.20
2022-08-26T04:32:50.540Z,16.24
2022-08-26T04:35:17.074Z,16.25
2022-08-26T04:37:43.686Z,16.28
2022-08-26T04:40:10.949Z,16.35
2022-08-26T04:42:37.516Z,16.39
2022-08-26T04:45:05.824Z,16.44
2022-08-26T04:47:36.975Z,16.50
2022-08-26T04:50:05.038Z,16.59
2022-08-26T04:52:35.228Z,16.63
2022-08-26T04:55:01.739Z,16.53
2022-08-26T04:57:29.393Z,16.43
2022-08-26T04:59:56.667Z,16.36
2022-08-26T05:02:23.872Z,16.38
2022-08-26T05:04:51.852Z,16.48
2022-08-26T05:07:18.304Z,16.59
2022-08-26T05:09:44.938Z,16.63
2022-08-26T05:12:11.505Z,16.80
2022-08-26T05:14:38.003Z,16.77
2022-08-26T05:17:04.805Z,16.69
2022-08-26T05:19:31.480Z,16.81
2022-08-26T05:21:59.085Z,16.80
2022-08-26T05:24:27.395Z,16.76
2022-08-26T05:26:54.079Z,16.75
2022-08-26T05:29:23.128Z,17.01
2022-08-26T05:31:53.717Z,17.26
2022-08-26T05:34:22.856Z,17.31
2022-08-26T05:36:52.102Z,17.32
2022-08-26T05:39:19.368Z,17.38
2022-08-26T05:41:45.898Z,17.35
2022-08-26T05:44:16.349Z,17.38
2022-08-26T05:46:44.068Z,17.44
2022-08-26T05:49:12.814Z,17.64
2022-08-26T05:51:40.842Z,17.82
2022-08-26T05:54:10.411Z,17.71
2022-08-26T05:56:37.375Z,17.83
2022-08-26T05:59:04.813Z,17.84
2022-08-26T06:01:31.484Z,17.99
2022-08-26T06:04:05.574Z,18.08
2022-08-26T06:06:33.991Z,18.24
2022-08-26T06:09:02.304Z,18.57
2022-08-26T06:11:29.163Z,18.49
2022-08-26T06:14:01.210Z,18.68
2022-08-26T06:16:32.005Z,18.60
2022-08-26T06:19:00.796Z,18.72
2022-08-26T06:21:30.574Z,18.70
2022-08-26T06:23:59.075Z,18.85
2022-08-26T06:26:25.826Z,18.90
2022-08-26T06:28:52.165Z,19.02
2022-08-26T06:31:18.630Z,19.21
2022-08-26T06:33:46.660Z,19.36
2022-08-26T06:36:17.176Z,19.54
2022-08-26T06:38:47.451Z,19.63
2022-08-26T06:41:13.899Z,19.94
2022-08-26T06:43:41.450Z,19.84
2022-08-26T06:46:11.296Z,20.07
2022-08-26T06:48:38.247Z,19.86
2022-08-26T06:51:10.566Z,20.12
2022-08-26T06:53:37.547Z,20.21
2022-08-26T06:56:08.876Z,20.24
2022-08-26T06:58:37.417Z,20.41
2022-08-26T07:01:11.656Z,20.43
2022-08-26T07:03:39.704Z,20.55
2022-08-26T07:06:06.535Z,20.81
2022-08-26T07:08:33.765Z,20.84
2022-08-26T07:11:03.891Z,20.95
2022-08-26T07:13:31.231Z,20.86
2022-08-26T07:16:02.937Z,20.65
2022-08-26T07:18:29.567Z,20.92
2022-08-26T07:20:55.890Z,20.81
2022-08-26T07:23:22.578Z,21.08
2022-08-26T07:25:49.962Z,21.10
2022-08-26T07:28:16.399Z,21.47
2022-08-26T07:32:37.825Z,21.62
2022-08-26T07:35:05.402Z,21.97
2022-08-26T07:37:35.589Z,21.90
2022-08-26T07:40:06.183Z,22.13
2022-08-26T07:42:33.424Z,21.98
2022-08-26T07:45:01.492Z,21.94
2022-08-26T07:47:28.280Z,22.12
2022-08-26T07:49:56.568Z,22.41
2022-08-26T07:52:26.958Z,22.78
2022-08-26T07:54:54.315Z,22.54
2022-08-26T07:57:21.002Z,22.89
2022-08-26T07:59:47.469Z,23.02
2022-08-26T08:02:13.832Z,23.28
2022-08-26T08:04:40.377Z,23.42
2022-08-26T08:07:07.417Z,23.29
2022-08-26T08:09:37.973Z,23.87
2022-08-26T08:12:07.583Z,23.91
2022-08-26T08:14:34.111Z,24.03
2022-08-26T08:17:00.827Z,24.02
2022-08-26T08:19:36.704Z,24.62
2022-08-26T08:22:04.573Z,24.84
2022-08-26T08:24:43.808Z,25.28
2022-08-26T08:27:10.332Z,25.18
2022-08-26T08:29:37.317Z,24.95
2022-08-26T08:32:03.967Z,25.20
2022-08-26T08:34:31.302Z,25.67
2022-08-26T08:36:58.929Z,25.73
2022-08-26T08:39:27.485Z,26.01
2022-08-26T08:42:18.962Z,26.12
2022-08-26T08:44:52.916Z,25.91
2022-08-26T08:47:42.456Z,26.39
2022-08-26T08:50:21.440Z,26.20
2022-08-26T08:52:57.097Z,26.20
2022-08-26T08:55:29.658Z,25.89
2022-08-26T08:58:08.082Z,26.19
2022-08-26T09:00:46.481Z,26.73
2022-08-26T09:03:35.280Z,26.53
2022-08-26T09:06:02.041Z,27.00
2022-08-26T09:08:34.599Z,27.24
2022-08-26T09:11:03.532Z,27.10
2022-08-26T09:13:31.577Z,27.28
2022-08-26T09:16:14.260Z,27.55
2022-08-26T09:18:50.088Z,27.60
2022-08-26T09:21:18.484Z,27.58
2022-08-26T09:23:49.296Z,27.66
2022-08-26T09:26:31.294Z,28.17
2022-08-26T09:29:04.909Z,28.45
2022-08-26T09:31:35.356Z,28.57
2022-08-26T09:34:08.099Z,28.65
2022-08-26T09:36:39.195Z,28.83
2022-08-26T09:39:37.567Z,28.72
2022-08-26T09:42:19.769Z,28.87
2022-08-26T09:44:56.063Z,28.82
2022-08-26T09:47:27.788Z,29.05
2022-08-26T09:50:02.299Z,29.23
2022-08-26T09:52:31.395Z,29.21
2022-08-26T09:55:12.224Z,29.48
2022-08-26T09:57:53.214Z,29.39
2022-08-26T10:00:35.135Z,29.35
2022-08-26T10:03:09.754Z,29.46
2022-08-26T10:05:39.689Z,28.97
2022-08-26T10:08:40.977Z,29.59
2022-08-26T10:11:22.186Z,29.12
2022-08-26T10:13:56.198Z,28.81
2022-08-26T10:16:30.183Z,28.72
2022-08-26T10:19:05.876Z,29.31
2022-08-26T10:21:42.477Z,29.33
2022-08-26T10:24:12.966Z,29.18
2022-08-26T10:26:50.222Z,29.72
2022-08-26T10:29:22.191Z,30.14
2022-08-26T10:32:02.555Z,30.53
2022-08-26T10:34:32.080Z,30.68
2022-08-26T10:37:13.761Z,30.85
2022-08-26T10:39:59.367Z,30.08
2022-08-26T10:42:32.084Z,30.80
2022-08-26T10:45:06.015Z,30.58
2022-08-26T10:47:44.793Z,30.14
2022-08-26T10:50:12.850Z,30.72
2022-08-26T10:53:00.583Z,31.06
2022-08-26T10:55:34.865Z,31.05
2022-08-26T10:58:28.104Z,30.75
2022-08-26T11:01:10.183Z,30.90
2022-08-26T11:04:27.711Z,31.41
2022-08-26T11:07:28.627Z,31.29
2022-08-26T11:10:09.813Z,31.03
2022-08-26T11:12:36.139Z,31.18
2022-08-26T11:15:25.635Z,31.82
2022-08-26T11:17:52.083Z,32.08
2022-08-26T11:20:39.329Z,30.82
2022-08-26T11:23:11.456Z,31.02
2022-08-26T11:25:57.835Z,31.06
2022-08-26T11:28:37.668Z,30.71
2022-08-26T11:31:09.078Z,31.36
2022-08-26T11:33:54.092Z,30.24
2022-08-26T11:36:40.259Z,30.95
2022-08-26T11:39:31.630Z,30.82
2022-08-26T11:42:28.339Z,31.37
2022-08-26T11:44:57.940Z,29.12
2022-08-26T11:47:31.080Z,28.64
2022-08-26T11:50:33.435Z,28.58
2022-08-26T11:53:02.428Z,28.24
2022-08-26T11:55:30.895Z,27.74
2022-08-26T11:58:01.148Z,27.14
2022-08-26T12:00:33.768Z,25.72
2022-08-26T12:03:06.331Z,25.33
2022-08-26T12:05:42.562Z,25.02
2022-08-26T12:10:42.073Z,25.62
2022-08-26T12:13:20.588Z,25.72
2022-08-26T12:15:57.290Z,26.19
2022-08-26T12:18:31.553Z,27.00
2022-08-26T12:21:14.454Z,27.23
2022-08-26T12:23:46.709Z,27.81
2022-08-26T12:26:35.887Z,28.21
2022-08-26T12:29:12.707Z,28.22
2022-08-26T12:31:48.254Z,27.95
2022-08-26T12:34:17.924Z,28.16
2022-08-26T12:36:50.237Z,28.31
2022-08-26T12:39:27.745Z,28.53
2022-08-26T12:41:55.742Z,28.88
2022-08-26T12:44:42.055Z,29.72
2022-08-26T12:47:42.846Z,29.07
2022-08-26T12:50:28.374Z,28.93
2022-08-26T12:53:02.931Z,28.49
2022-08-26T12:55:38.918Z,29.09
2022-08-26T12:58:20.592Z,29.27
2022-08-26T13:00:56.767Z,29.31
2022-08-26T13:03:35.843Z,29.66
2022-08-26T13:06:15.676Z,29.30
2022-08-26T13:08:44.367Z,30.01
2022-08-26T13:11:16.549Z,29.95
2022-08-26T13:13:43.094Z,29.95
2022-08-26T13:16:09.858Z,29.72
2022-08-26T13:18:36.306Z,30.06
2022-08-26T13:21:11.113Z,29.70
2022-08-26T13:23:42.344Z,30.24
2022-08-26T13:26:09.017Z,29.95
2022-08-26T13:28:35.661Z,30.49
2022-08-26T13:31:04.230Z,30.02
2022-08-26T13:33:34.509Z,30.15
2022-08-26T13:36:02.165Z,30.18
2022-08-26T13:38:33.764Z,30.44
2022-08-26T13:41:02.148Z,30.44
2022-08-26T13:43:29.284Z,30.95
2022-08-26T13:45:55.820Z,30.19
2022-08-26T13:48:23.600Z,29.81
2022-08-26T13:50:50.650Z,29.66
2022-08-26T13:53:17.320Z,29.64
2022-08-26T13:55:43.772Z,30.09
2022-08-26T13:58:11.346Z,29.79
2022-08-26T14:00:38.810Z,29.28
2022-08-26T14:03:11.315Z,29.96
2022-08-26T14:05:39.558Z,29.22
2022-08-26T14:08:08.130Z,29.86
2022-08-26T14:10:36.504Z,30.06
2022-08-26T14:13:04.932Z,30.14
2022-08-26T14:15:36.880Z,29.69
2022-08-26T14:18:06.834Z,29.83
2022-08-26T14:20:37.299Z,29.78
2022-08-26T14:23:14.473Z,29.96
2022-08-26T14:25:46.829Z,30.08
2022-08-26T14:28:13.271Z,30.20
2022-08-26T14:30:42.212Z,29.10
2022-08-26T14:33:12.193Z,28.91
2022-08-26T14:35:38.903Z,28.96
2022-08-26T14:38:05.451Z,28.58
2022-08-26T14:40:33.845Z,28.28
2022-08-26T14:43:06.157Z,28.30
2022-08-26T14:45:37.699Z,28.18
2022-08-26T14:48:04.389Z,28.15
2022-08-26T14:50:30.946Z,28.08
2022-08-26T14:52:57.377Z,28.00
2022-08-26T14:55:23.846Z,27.92
2022-08-26T14:57:50.267Z,27.81
2022-08-26T15:00:16.917Z,27.75
2022-08-26T15:02:43.774Z,27.66
2022-08-26T15:05:10.445Z,27.66
2022-08-26T15:07:38.282Z,27.54
2022-08-26T15:10:11.348Z,27.51
2022-08-26T15:12:38.552Z,27.64
2022-08-26T15:15:07.300Z,27.55
2022-08-26T15:17:34.041Z,27.42
2022-08-26T15:20:01.614Z,27.27
2022-08-26T15:22:29.941Z,27.23
2022-08-26T15:24:58.209Z,27.14
2022-08-26T15:27:25.776Z,27.10
2022-08-26T15:29:52.239Z,27.08
2022-08-26T15:32:18.800Z,27.04
2022-08-26T15:34:45.546Z,27.06
2022-08-26T15:37:12.193Z,26.95
2022-08-26T15:39:38.581Z,26.89
2022-08-26T15:42:05.322Z,26.85
2022-08-26T15:44:31.757Z,26.85
2022-08-26T15:46:58.908Z,26.80
2022-08-26T15:49:28.234Z,26.81
2022-08-26T15:51:55.903Z,26.76
2022-08-26T15:54:25.733Z,26.75
2022-08-26T15:56:54.294Z,26.70
2022-08-26T15:59:21.717Z,26.28
2022-08-26T16:01:48.411Z,25.99
2022-08-26T16:04:15.031Z,25.99
2022-08-26T16:06:43.067Z,26.08
2022-08-26T16:09:10.414Z,26.10
2022-08-26T16:11:36.986Z,26.06
2022-08-26T16:14:05.892Z,25.95
2022-08-26T16:16:32.675Z,26.01
2022-08-26T16:19:00.597Z,25.88
2022-08-26T16:21:30.098Z,25.90
2022-08-26T16:23:57.743Z,25.88
2022-08-26T16:26:30.892Z,25.75
2022-08-26T16:28:58.831Z,25.62
2022-08-26T16:31:25.318Z,25.50
2022-08-26T16:33:51.871Z,25.30
2022-08-26T16:36:18.599Z,25.11
2022-08-26T16:38:49.525Z,24.93
2022-08-26T16:41:17.066Z,24.66
2022-08-26T16:43:43.741Z,24.49
2022-08-26T16:46:11.106Z,24.26
2022-08-26T16:48:39.741Z,24.18
2022-08-26T16:51:16.257Z,23.96
2022-08-26T16:53:44.122Z,23.65
2022-08-26T16:56:19.478Z,23.54
2022-08-26T16:58:45.986Z,23.49
2022-08-26T17:01:12.764Z,23.35
2022-08-26T17:03:39.205Z,23.24
2022-08-26T17:06:07.445Z,23.03
2022-08-26T17:08:34.557Z,22.83
2022-08-26T17:11:01.249Z,22.72
2022-08-26T17:13:35.249Z,22.48
2022-08-26T17:16:04.611Z,22.33
2022-08-26T17:18:32.358Z,22.25
2022-08-26T17:21:08.148Z,22.18
2022-08-26T17:23:35.050Z,22.09
2022-08-26T17:26:03.622Z,22.03
2022-08-26T17:28:30.239Z,22.13
2022-08-26T17:30:58.472Z,22.11
2022-08-26T17:33:25.833Z,22.03
2022-08-26T17:35:53.968Z,22.02
2022-08-26T17:38:21.327Z,21.92
2022-08-26T17:40:48.669Z,21.87
2022-08-26T17:43:15.530Z,21.81
2022-08-26T17:45:42.020Z,21.56
2022-08-26T17:48:11.062Z,21.42
2022-08-26T17:50:40.451Z,21.34
2022-08-26T17:53:07.458Z,21.28
2022-08-26T17:55:35.590Z,21.20
2022-08-26T17:58:03.860Z,21.15
2022-08-26T18:00:34.907Z,21.15
2022-08-26T18:03:01.345Z,20.86
2022-08-26T18:05:27.809Z,20.75
2022-08-26T18:07:56.422Z,20.75
2022-08-26T18:10:23.044Z,20.91
2022-08-26T18:12:49.450Z,20.90
2022-08-26T18:15:17.815Z,20.89
2022-08-26T18:17:48.746Z,20.75
2022-08-26T18:20:17.287Z,20.74
2022-08-26T18:22:44.508Z,20.55
2022-08-26T18:25:11.985Z,20.35
2022-08-26T18:27:38.607Z,20.37
2022-08-26T18:30:07.949Z,20.42
2022-08-26T18:32:34.993Z,20.51
2022-08-26T18:35:02.336Z,20.53
2022-08-26T18:37:31.634Z,20.53
2022-08-26T18:39:58.739Z,20.49
2022-08-26T18:42:25.138Z,20.45
2022-08-26T18:44:51.714Z,20.43
2022-08-26T18:47:18.227Z,20.34
2022-08-26T18:49:44.851Z,20.35
2022-08-26T18:52:12.110Z,20.22
2022-08-26T18:54:39.104Z,20.19
2022-08-26T18:57:05.686Z,20.18
2022-08-26T18:59:33.627Z,20.18
2022-08-26T19:02:00.335Z,20.25
2022-08-26T19:04:27.169Z,20.35
2022-08-26T19:06:54.080Z,20.39
2022-08-26T19:09:21.115Z,20.36
2022-08-26T19:11:49.759Z,20.32
2022-08-26T19:14:16.846Z,20.33
2022-08-26T19:16:45.784Z,20.23
2022-08-26T19:19:12.755Z,20.17
2022-08-26T19:21:39.790Z,20.03
2022-08-26T19:24:09.541Z,20.09
2022-08-26T19:26:38.161Z,19.99
2022-08-26T19:29:05.152Z,20.00
2022-08-26T19:31:31.592Z,19.97
2022-08-26T19:33:59.102Z,19.88
2022-08-26T19:36:26.598Z,19.80
2022-08-26T19:38:53.581Z,19.84
2022-08-26T19:41:29.033Z,19.84
2022-08-26T19:44:08.822Z,19.87
2022-08-26T19:46:36.129Z,19.83
2022-08-26T19:49:03.453Z,19.76
2022-08-26T19:51:32.937Z,19.74
2022-08-26T19:54:01.015Z,19.69
2022-08-26T19:56:28.415Z,19.66
2022-08-26T19:58:55.982Z,19.58
2022-08-26T20:01:23.234Z,19.58
2022-08-26T20:03:49.997Z,19.36
2022-08-26T20:06:17.273Z,19.36
2022-08-26T20:08:45.788Z,19.33
2022-08-26T20:11:16.643Z,19.37
2022-08-26T20:13:44.639Z,19.42
2022-08-26T20:16:14.051Z,19.36
2022-08-26T20:18:41.801Z,19.35
2022-08-26T20:21:08.257Z,19.34
2022-08-26T20:23:34.839Z,19.30
2022-08-26T20:26:03.138Z,19.31
2022-08-26T20:28:29.797Z,19.23
2022-08-26T20:30:56.555Z,19.23
2022-08-26T20:33:23.285Z,19.13
2022-08-26T20:35:49.750Z,19.07
2022-08-26T20:38:20.864Z,19.03
2022-08-26T20:40:48.802Z,18.98
2022-08-26T20:43:15.650Z,18.98
2022-08-26T20:45:42.229Z,18.99
2022-08-26T20:48:08.952Z,18.98
2022-08-26T20:50:35.678Z,18.99
2022-08-26T20:53:02.728Z,19.01
2022-08-26T20:55:29.271Z,18.99
2022-08-26T20:57:56.034Z,19.00
2022-08-26T21:00:26.993Z,18.98
2022-08-26T21:02:55.710Z,18.96
2022-08-26T21:05:22.833Z,18.93
2022-08-26T21:07:49.592Z,18.90
2022-08-26T21:10:16.289Z,18.84
2022-08-26T21:12:42.988Z,18.81
2022-08-26T21:15:10.370Z,18.82
2022-08-26T21:17:36.873Z,18.84
2022-08-26T21:20:05.625Z,18.77
2022-08-26T21:22:32.073Z,18.71
2022-08-26T21:24:58.525Z,18.70
2022-08-26T21:27:30.109Z,18.70
2022-08-26T21:29:56.827Z,18.74
2022-08-26T21:32:23.397Z,18.70
2022-08-26T21:34:50.151Z,18.61
2022-08-26T21:37:17.129Z,18.53
2022-08-26T21:39:44.049Z,18.51
2022-08-26T21:42:10.820Z,18.48
2022-08-26T21:44:37.521Z,18.48
2022-08-26T21:47:04.213Z,18.44
2022-08-26T21:49:30.905Z,18.42
2022-08-26T21:51:57.341Z,18.42
2022-08-26T21:54:23.842Z,18.38
2022-08-26T21:56:50.463Z,18.40
2022-08-26T21:59:21.571Z,18.35
2022-08-26T22:01:48.316Z,18.33
2022-08-26T22:04:15.186Z,18.31
2022-08-26T22:06:46.506Z,18.30
2022-08-26T22:09:15.863Z,18.31
2022-08-26T22:11:42.948Z,18.33
2022-08-26T22:14:10.648Z,18.31
2022-08-26T22:16:37.665Z,18.25
2022-08-26T22:19:04.377Z,18.16
2022-08-26T22:21:32.861Z,18.16
2022-08-26T22:23:59.860Z,18.14
2022-08-26T22:26:30.483Z,18.06
2022-08-26T22:28:59.659Z,17.96
2022-08-26T22:31:36.971Z,17.98
2022-08-26T22:34:12.018Z,18.07
2022-08-26T22:36:45.291Z,18.13
2022-08-26T22:39:15.239Z,18.19
2022-08-26T22:41:43.297Z,18.23
2022-08-26T22:44:11.898Z,18.18
2022-08-26T22:46:39.032Z,18.23
2022-08-26T22:49:05.804Z,18.24
2022-08-26T22:51:33.674Z,18.19
2022-08-26T22:54:00.805Z,17.97
2022-08-26T22:56:28.656Z,17.93
2022-08-26T22:58:55.135Z,17.98
2022-08-26T23:01:21.914Z,18.00
2022-08-26T23:03:48.744Z,18.04
2022-08-26T23:06:16.167Z,18.00
2022-08-26T23:08:42.634Z,18.00
2022-08-26T23:11:10.525Z,18.07
2022-08-26T23:13:38.196Z,18.14
2022-08-26T23:16:08.456Z,18.25
2022-08-26T23:18:35.519Z,18.31
2022-08-26T23:21:02.311Z,18.37
2022-08-26T23:23:28.741Z,18.39
2022-08-26T23:25:55.789Z,18.39
2022-08-26T23:28:23.697Z,18.42
2022-08-26T23:30:50.413Z,18.46
2022-08-26T23:33:19.286Z,18.43
2022-08-26T23:35:45.855Z,18.41
2022-08-26T23:38:14.165Z,18.45
2022-08-26T23:40:41.859Z,18.41
2022-08-26T23:43:10.101Z,18.41
2022-08-26T23:45:36.686Z,18.43
2022-08-26T23:48:03.865Z,18.37
2022-08-26T23:50:31.322Z,18.38
2022-08-26T23:52:58.623Z,18.49
2022-08-26T23:55:26.405Z,18.49
2022-08-26T23:57:52.992Z,18.41
